createdAt,value
2019-04-07T00:01:45.038Z,112.13
2019-04-07T00:04:13.459Z,108.83
2019-04-07T00:06:41.882Z,107.20
2019-04-07T00:09:10.812Z,105.93
2019-04-07T00:11:39.675Z,107.10
2019-04-07T00:14:08.349Z,105.50
2019-04-07T00:16:37.312Z,104.20
2019-04-07T00:19:05.725Z,110.50
2019-04-07T00:21:34.096Z,107.67
2019-04-07T00:24:02.539Z,108.00
2019-04-07T00:26:31.155Z,103.43
2019-04-07T00:28:59.969Z,111.17
2019-04-07T00:31:28.924Z,106.93
2019-04-07T00:33:58.155Z,100.87
2019-04-07T00:36:26.638Z,106.03
2019-04-07T00:38:55.038Z,106.60
2019-04-07T00:41:23.477Z,108.80
2019-04-07T00:43:51.903Z,111.33
2019-04-07T00:46:20.304Z,118.13
2019-04-07T00:48:48.711Z,107.03
2019-04-07T00:51:17.831Z,107.13
2019-04-07T00:53:46.385Z,104.67
2019-04-07T00:56:14.699Z,103.80
2019-04-07T00:58:43.456Z,101.97
2019-04-07T01:01:14.035Z,103.93
2019-04-07T01:03:43.036Z,98.47
2019-04-07T01:06:11.570Z,109.73
2019-04-07T01:08:40.036Z,105.10
2019-04-07T01:11:08.870Z,106.87
2019-04-07T01:13:37.376Z,106.43
2019-04-07T01:16:05.750Z,100.97
2019-04-07T01:18:34.146Z,104.17
2019-04-07T01:21:02.569Z,101.77
2019-04-07T01:23:31.430Z,103.50
2019-04-07T01:25:59.896Z,104.60
2019-04-07T01:28:28.626Z,103.40
2019-04-07T01:30:56.978Z,101.20
2019-04-07T01:33:25.658Z,102.50
2019-04-07T01:35:54.877Z,106.83
2019-04-07T01:38:23.278Z,101.10
2019-04-07T01:41:12.140Z,107.57
2019-04-07T01:43:44.979Z,104.17
2019-04-07T01:46:20.640Z,105.67
2019-04-07T01:49:06.660Z,104.33
2019-04-07T01:51:43.226Z,108.97
2019-04-07T01:54:29.628Z,102.00
2019-04-07T01:57:02.982Z,99.53
2019-04-07T01:59:39.280Z,102.33
2019-04-07T02:02:18.921Z,104.37
2019-04-07T02:05:07.571Z,105.57
2019-04-07T02:07:50.147Z,110.13
2019-04-07T02:10:29.150Z,101.47
2019-04-07T02:13:05.234Z,109.97
2019-04-07T02:15:52.675Z,106.47
2019-04-07T02:18:23.444Z,103.47
2019-04-07T02:20:54.191Z,107.53
2019-04-07T02:23:27.233Z,110.37
2019-04-07T02:26:07.022Z,108.53
2019-04-07T02:28:37.254Z,105.97
2019-04-07T02:31:17.144Z,103.20
2019-04-07T02:33:50.012Z,111.80
2019-04-07T02:36:28.415Z,105.47
2019-04-07T02:38:58.192Z,112.50
2019-04-07T02:41:34.516Z,105.83
2019-04-07T02:44:04.925Z,101.97
2019-04-07T02:46:38.229Z,109.60
2019-04-07T02:49:12.313Z,107.33
2019-04-07T02:51:43.442Z,110.23
2019-04-07T02:54:30.262Z,114.57
2019-04-07T02:57:09.968Z,103.80
2019-04-07T02:59:56.268Z,108.93
2019-04-07T03:02:32.194Z,106.23
2019-04-07T03:05:14.295Z,102.80
2019-04-07T03:07:54.926Z,106.37
2019-04-07T03:10:41.549Z,110.77
2019-04-07T03:13:24.318Z,113.43
2019-04-07T03:15:57.761Z,115.33
2019-04-07T03:18:37.421Z,104.73
2019-04-07T03:21:25.336Z,106.20
2019-04-07T03:23:58.563Z,112.73
2019-04-07T03:26:34.583Z,112.90
2019-04-07T03:29:10.313Z,121.17
2019-04-07T03:31:41.070Z,113.40
2019-04-07T03:34:18.974Z,119.43
2019-04-07T03:37:19.113Z,119.10
2019-04-07T03:39:30.234Z,122.03
2019-04-07T03:42:17.819Z,123.17
2019-04-07T03:44:51.182Z,118.83
2019-04-07T03:47:27.014Z,115.50
2019-04-07T03:50:03.379Z,118.77
2019-04-07T03:52:51.820Z,117.27
2019-04-07T03:55:22.733Z,118.47
2019-04-07T03:58:09.873Z,116.43
2019-04-07T04:00:55.113Z,116.43
2019-04-07T04:03:25.689Z,123.03
2019-04-07T04:05:55.844Z,126.87
2019-04-07T04:08:38.295Z,120.40
2019-04-07T04:11:11.644Z,121.10
2019-04-07T04:13:42.329Z,120.40
2019-04-07T04:16:10.774Z,109.27
2019-04-07T04:18:39.366Z,114.07
2019-04-07T04:21:07.815Z,113.80
2019-04-07T04:23:36.217Z,121.37
2019-04-07T04:26:04.632Z,118.33
2019-04-07T04:28:33.096Z,121.70
2019-04-07T04:31:01.504Z,123.50
2019-04-07T04:33:30.976Z,119.33
2019-04-07T04:36:00.462Z,117.50
2019-04-07T04:38:29.786Z,111.37
2019-04-07T04:40:58.348Z,120.43
2019-04-07T04:43:27.543Z,123.93
2019-04-07T04:45:56.758Z,121.17
2019-04-07T04:48:25.926Z,119.13
2019-04-07T04:50:54.447Z,116.93
2019-04-07T04:53:24.083Z,120.23
2019-04-07T04:55:53.432Z,114.70
2019-04-07T04:58:22.748Z,123.33
2019-04-07T05:00:52.328Z,121.70
2019-04-07T05:03:21.569Z,120.07
2019-04-07T05:05:49.989Z,121.53
2019-04-07T05:08:18.412Z,123.43
2019-04-07T05:10:47.327Z,121.43
2019-04-07T05:13:15.999Z,118.60
2019-04-07T05:15:44.593Z,124.73
2019-04-07T05:18:13.086Z,126.10
2019-04-07T05:20:42.032Z,119.40
2019-04-07T05:23:11.018Z,118.37
2019-04-07T05:25:39.427Z,117.03
2019-04-07T05:28:07.824Z,113.60
2019-04-07T05:30:36.558Z,112.93
2019-04-07T05:33:05.545Z,112.80
2019-04-07T05:35:34.208Z,108.07
2019-04-07T05:38:04.977Z,107.93
2019-04-07T05:40:32.716Z,105.60
2019-04-07T05:43:01.108Z,107.07
2019-04-07T05:45:29.506Z,109.97
2019-04-07T05:47:57.922Z,108.93
2019-04-07T05:50:27.436Z,98.60
2019-04-07T05:52:56.540Z,99.53
2019-04-07T05:55:24.965Z,98.63
2019-04-07T05:57:53.376Z,100.27
2019-04-07T06:00:21.860Z,101.13
2019-04-07T06:02:50.786Z,102.77
2019-04-07T06:05:19.660Z,94.40
2019-04-07T06:07:48.085Z,92.93
2019-04-07T06:10:16.674Z,90.40
2019-04-07T06:12:47.369Z,96.00
2019-04-07T06:15:19.247Z,95.63
2019-04-07T06:17:45.798Z,89.23
2019-04-07T06:20:15.801Z,88.90
2019-04-07T06:22:46.648Z,90.97
2019-04-07T06:25:14.303Z,96.70
2019-04-07T06:27:45.248Z,88.53
2019-04-07T06:30:14.214Z,89.80
2019-04-07T06:32:44.048Z,87.30
2019-04-07T06:35:13.945Z,85.33
2019-04-07T06:37:42.953Z,89.40
2019-04-07T06:40:12.247Z,88.73
2019-04-07T06:42:40.844Z,91.27
2019-04-07T06:45:10.930Z,84.20
2019-04-07T06:47:40.930Z,84.07
2019-04-07T06:50:25.903Z,84.07
2019-04-07T06:52:56.598Z,83.10
2019-04-07T06:55:42.855Z,78.30
2019-04-07T06:58:28.813Z,90.03
2019-04-07T07:01:03.179Z,87.40
2019-04-07T07:03:43.075Z,85.83
2019-04-07T07:06:17.384Z,78.37
2019-04-07T07:09:06.254Z,79.70
2019-04-07T07:11:40.854Z,79.63
2019-04-07T07:14:08.054Z,79.80
2019-04-07T07:16:54.509Z,75.57
2019-04-07T07:19:40.169Z,73.80
2019-04-07T07:22:17.365Z,78.90
2019-04-07T07:24:47.160Z,74.53
2019-04-07T07:27:16.403Z,76.13
2019-04-07T07:29:45.833Z,73.97
2019-04-07T07:32:14.929Z,76.43
2019-04-07T07:34:43.448Z,71.93
2019-04-07T07:37:11.849Z,73.60
2019-04-07T07:39:43.765Z,73.97
2019-04-07T07:42:10.554Z,73.20
2019-04-07T07:44:39.828Z,70.33
2019-04-07T07:47:09.048Z,73.53
2019-04-07T07:49:40.283Z,70.73
2019-04-07T07:52:07.572Z,69.47
2019-04-07T07:54:36.778Z,65.07
2019-04-07T07:57:05.293Z,69.57
2019-04-07T07:59:37.877Z,66.20
2019-04-07T08:02:03.842Z,66.77
2019-04-07T08:04:32.212Z,69.03
2019-04-07T08:07:02.363Z,62.43
2019-04-07T08:09:30.716Z,65.50
2019-04-07T08:12:02.439Z,61.13
2019-04-07T08:14:29.346Z,59.83
2019-04-07T08:17:00.163Z,63.93
2019-04-07T08:19:30.320Z,60.70
2019-04-07T08:21:58.435Z,57.00
2019-04-07T08:24:27.226Z,58.60
2019-04-07T08:26:57.117Z,63.30
2019-04-07T08:29:25.815Z,56.30
2019-04-07T08:31:55.427Z,54.43
2019-04-07T08:34:24.346Z,60.27
2019-04-07T08:36:53.028Z,50.93
2019-04-07T08:39:25.641Z,49.30
2019-04-07T08:41:51.814Z,53.57
2019-04-07T08:44:20.478Z,50.37
2019-04-07T08:46:49.638Z,50.40
2019-04-07T08:49:18.138Z,48.97
2019-04-07T08:51:46.521Z,50.63
2019-04-07T08:54:17.605Z,49.40
2019-04-07T08:56:45.695Z,49.30
2019-04-07T08:59:16.968Z,47.00
2019-04-07T09:01:44.653Z,48.83
2019-04-07T09:04:15.080Z,51.03
2019-04-07T09:06:43.824Z,50.90
2019-04-07T09:09:12.292Z,47.87
2019-04-07T09:11:41.621Z,50.90
2019-04-07T09:14:10.920Z,48.30
2019-04-07T09:16:46.732Z,53.17
2019-04-07T09:19:19.257Z,48.33
2019-04-07T09:22:04.429Z,47.00
2019-04-07T09:24:50.825Z,48.07
2019-04-07T09:27:24.603Z,51.40
2019-04-07T09:30:10.180Z,50.00
2019-04-07T09:32:41.634Z,45.57
2019-04-07T09:35:14.465Z,45.80
2019-04-07T09:37:53.348Z,46.03
2019-04-07T09:40:22.229Z,49.67
2019-04-07T09:42:52.956Z,47.53
2019-04-07T09:45:39.552Z,46.60
2019-04-07T09:48:12.420Z,45.17
2019-04-07T09:50:43.105Z,46.43
2019-04-07T09:53:13.795Z,49.23
2019-04-07T09:55:51.532Z,49.67
2019-04-07T09:58:30.885Z,43.63
2019-04-07T10:01:06.098Z,43.60
2019-04-07T10:03:35.473Z,47.13
2019-04-07T10:06:12.961Z,44.90
2019-04-07T10:08:49.533Z,45.00
2019-04-07T10:11:19.774Z,42.20
2019-04-07T10:14:06.334Z,43.20
2019-04-07T10:16:39.478Z,42.43
2019-04-07T10:19:12.988Z,40.27
2019-04-07T10:21:49.770Z,45.23
2019-04-07T10:24:19.924Z,41.30
2019-04-07T10:27:05.829Z,35.23
2019-04-07T10:29:48.162Z,39.63
2019-04-07T10:32:25.802Z,40.03
2019-04-07T10:35:12.568Z,39.20
2019-04-07T10:37:42.856Z,37.87
2019-04-07T10:40:27.526Z,39.63
2019-04-07T10:43:09.632Z,35.07
2019-04-07T10:45:45.924Z,34.63
2019-04-07T10:48:16.069Z,32.73
2019-04-07T10:50:58.093Z,34.53
2019-04-07T10:53:30.333Z,38.90
2019-04-07T10:56:16.519Z,32.67
2019-04-07T10:58:47.199Z,32.97
2019-04-07T11:01:20.083Z,34.63
2019-04-07T11:03:54.766Z,33.30
2019-04-07T11:06:28.413Z,34.53
2019-04-07T11:09:16.814Z,33.03
2019-04-07T11:11:48.902Z,31.53
2019-04-07T11:14:35.054Z,31.20
2019-04-07T11:17:06.414Z,32.80
2019-04-07T11:19:39.779Z,32.03
2019-04-07T11:22:15.920Z,31.47
2019-04-07T11:24:48.943Z,32.20
2019-04-07T11:27:35.419Z,31.00
2019-04-07T11:30:10.315Z,29.73
2019-04-07T11:32:43.464Z,27.63
2019-04-07T11:35:19.570Z,29.20
2019-04-07T11:38:01.515Z,27.27
2019-04-07T11:40:48.981Z,26.20
2019-04-07T11:43:15.277Z,24.03
2019-04-07T11:46:00.227Z,26.53
2019-04-07T11:48:26.022Z,25.77
2019-04-07T11:51:02.096Z,25.37
2019-04-07T11:53:32.963Z,23.83
2019-04-07T11:56:11.277Z,24.77
2019-04-07T11:58:40.885Z,23.07
2019-04-07T12:01:27.076Z,18.93
2019-04-07T12:03:59.992Z,17.53
2019-04-07T12:06:30.045Z,13.73
2019-04-07T12:09:18.357Z,11.90
2019-04-07T12:11:48.415Z,11.67
2019-04-07T12:14:21.179Z,12.37
2019-04-07T12:17:04.778Z,12.07
2019-04-07T12:19:40.994Z,11.10
2019-04-07T12:22:14.309Z,11.57
2019-04-07T12:24:46.836Z,12.53
2019-04-07T12:27:17.255Z,10.90
2019-04-07T12:29:47.366Z,12.10
2019-04-07T12:32:23.892Z,12.23
2019-04-07T12:34:56.637Z,11.23
2019-04-07T12:37:42.030Z,11.70
2019-04-07T12:40:20.496Z,12.73
2019-04-07T12:42:51.257Z,12.37
2019-04-07T12:45:37.038Z,12.57
2019-04-07T12:48:10.266Z,12.20
2019-04-07T12:50:40.331Z,12.67
2019-04-07T12:53:19.721Z,13.40
2019-04-07T12:56:06.993Z,16.87
2019-04-07T12:58:55.952Z,13.23
2019-04-07T13:01:26.049Z,15.57
2019-04-07T13:04:13.262Z,15.73
2019-04-07T13:06:49.421Z,15.93
2019-04-07T13:09:32.064Z,15.23
2019-04-07T13:12:20.422Z,15.83
2019-04-07T13:14:50.985Z,12.83
2019-04-07T13:17:38.124Z,12.10
2019-04-07T13:20:08.585Z,11.60
2019-04-07T13:25:53.165Z,14.23
2019-04-07T13:28:21.690Z,12.90
2019-04-07T13:31:00.458Z,13.80
2019-04-07T13:33:46.875Z,15.90
2019-04-07T13:36:20.265Z,13.27
2019-04-07T13:38:56.290Z,13.90
2019-04-07T13:41:42.577Z,12.33
2019-04-07T13:44:19.734Z,13.57
2019-04-07T13:47:07.268Z,14.53
2019-04-07T13:49:50.177Z,13.00
2019-04-07T13:52:23.210Z,14.83
2019-04-07T13:55:07.701Z,15.37
2019-04-07T13:57:40.347Z,14.80
2019-04-07T14:00:17.397Z,15.97
2019-04-07T14:02:47.849Z,14.80
2019-04-07T14:05:33.163Z,15.60
2019-04-07T14:08:27.025Z,15.90
2019-04-07T14:10:58.249Z,15.70
2019-04-07T14:13:28.489Z,14.17
2019-04-07T14:15:58.677Z,15.33
2019-04-07T14:18:50.161Z,17.33
2019-04-07T14:21:30.712Z,15.73
2019-04-07T14:24:01.654Z,15.13
2019-04-07T14:26:38.857Z,13.73
2019-04-07T14:29:15.275Z,13.90
2019-04-07T14:32:02.067Z,15.07
2019-04-07T14:34:39.111Z,14.50
2019-04-07T14:37:25.290Z,13.00
2019-04-07T14:39:55.463Z,13.77
2019-04-07T14:42:26.323Z,13.37
2019-04-07T14:45:02.364Z,13.00
2019-04-07T14:47:32.486Z,11.77
2019-04-07T14:50:02.506Z,12.53
2019-04-07T14:52:48.208Z,12.23
2019-04-07T14:55:53.828Z,11.63
2019-04-07T14:58:38.832Z,13.10
2019-04-07T15:01:14.735Z,13.00
2019-04-07T15:03:43.824Z,11.43
2019-04-07T15:06:12.270Z,11.87
2019-04-07T15:08:43.086Z,11.97
2019-04-07T15:11:29.742Z,11.97
2019-04-07T15:14:00.655Z,12.27
2019-04-07T15:16:28.574Z,12.30
2019-04-07T15:18:56.996Z,13.90
2019-04-07T15:21:25.435Z,14.93
2019-04-07T15:23:53.799Z,14.03
2019-04-07T15:26:22.203Z,14.43
2019-04-07T15:28:50.600Z,12.60
2019-04-07T15:31:19.523Z,13.47
2019-04-07T15:33:49.733Z,14.50
2019-04-07T15:36:19.561Z,13.53
2019-04-07T15:38:48.612Z,13.43
2019-04-07T15:41:19.059Z,12.40
2019-04-07T15:43:47.150Z,14.63
2019-04-07T15:46:18.129Z,13.17
2019-04-07T15:48:46.502Z,13.37
2019-04-07T15:51:14.994Z,12.97
2019-04-07T15:53:48.469Z,16.30
2019-04-07T15:56:16.162Z,12.93
2019-04-07T15:58:43.460Z,15.70
2019-04-07T16:01:12.217Z,13.47
2019-04-07T16:03:40.550Z,24.43
2019-04-07T16:06:09.675Z,15.37
2019-04-07T16:08:39.391Z,14.13
2019-04-07T16:11:08.115Z,13.57
2019-04-07T16:13:36.495Z,13.17
2019-04-07T16:16:05.784Z,12.43
2019-04-07T16:18:36.883Z,13.63
2019-04-07T16:21:07.180Z,13.90
2019-04-07T16:23:35.180Z,12.73
2019-04-07T16:26:03.628Z,13.73
2019-04-07T16:28:33.034Z,13.90
2019-04-07T16:31:01.596Z,15.37
2019-04-07T16:33:32.570Z,13.37
2019-04-07T16:36:00.097Z,12.50
2019-04-07T16:38:30.140Z,12.97
2019-04-07T16:40:58.827Z,16.50
2019-04-07T16:43:28.644Z,13.47
2019-04-07T16:45:57.264Z,14.00
2019-04-07T16:48:26.114Z,15.13
2019-04-07T16:50:55.299Z,17.80
2019-04-07T16:53:24.746Z,13.77
2019-04-07T16:55:55.573Z,16.13
2019-04-07T16:58:23.215Z,13.33
2019-04-07T17:00:51.800Z,13.10
2019-04-07T17:03:20.493Z,14.37
2019-04-07T17:05:48.995Z,13.53
2019-04-07T17:08:19.672Z,13.93
2019-04-07T17:10:47.433Z,13.37
2019-04-07T17:13:20.552Z,13.30
2019-04-07T17:15:45.885Z,12.70
2019-04-07T17:18:36.758Z,12.70
2019-04-07T17:21:09.412Z,15.00
2019-04-07T17:23:39.630Z,13.80
2019-04-07T17:26:08.186Z,14.43
2019-04-07T17:28:36.603Z,18.27
2019-04-07T17:31:05.845Z,14.53
2019-04-07T17:33:36.831Z,13.57
2019-04-07T17:36:04.523Z,14.03
2019-04-07T17:38:38.135Z,14.77
2019-04-07T17:41:08.277Z,14.63
2019-04-07T17:43:51.497Z,14.37
2019-04-07T17:46:16.667Z,15.97
2019-04-07T17:48:58.373Z,15.03
2019-04-07T17:51:36.345Z,17.00
2019-04-07T17:54:07.898Z,17.03
2019-04-07T17:56:54.973Z,16.63
2019-04-07T17:59:35.078Z,15.53
2019-04-07T18:02:17.846Z,16.37
2019-04-07T18:04:51.234Z,16.83
2019-04-07T18:07:20.120Z,15.20
2019-04-07T18:09:53.407Z,18.37
2019-04-07T18:12:45.426Z,16.73
2019-04-07T18:15:19.115Z,14.87
2019-04-07T18:18:01.672Z,17.00
2019-04-07T18:20:44.450Z,19.20
2019-04-07T18:23:26.657Z,17.20
2019-04-07T18:25:56.832Z,14.43
2019-04-07T18:28:39.182Z,15.67
2019-04-07T18:31:27.478Z,17.60
2019-04-07T18:34:14.240Z,18.00
2019-04-07T18:37:00.813Z,17.20
2019-04-07T18:39:48.929Z,19.60
2019-04-07T18:42:18.281Z,16.67
2019-04-07T18:44:48.341Z,15.63
2019-04-07T18:47:24.349Z,15.80
2019-04-07T18:50:10.415Z,15.80
2019-04-07T18:52:40.948Z,16.53
2019-04-07T18:55:18.082Z,14.77
2019-04-07T18:58:03.262Z,17.50
2019-04-07T19:00:39.253Z,18.50
2019-04-07T19:03:12.017Z,16.63
2019-04-07T19:05:58.625Z,16.93
2019-04-07T19:08:37.880Z,15.67
2019-04-07T19:11:14.794Z,15.70
2019-04-07T19:13:39.618Z,17.83
2019-04-07T19:16:18.878Z,19.57
2019-04-07T19:18:50.589Z,18.57
2019-04-07T19:21:20.900Z,14.43
2019-04-07T19:23:54.006Z,15.50
2019-04-07T19:26:39.012Z,15.43
2019-04-07T19:29:12.034Z,16.53
2019-04-07T19:31:43.446Z,17.37
2019-04-07T19:34:31.804Z,15.30
2019-04-07T19:37:17.281Z,16.57
2019-04-07T19:40:01.222Z,18.10
2019-04-07T19:42:34.920Z,17.30
2019-04-07T19:45:07.082Z,19.10
2019-04-07T19:47:37.243Z,16.27
2019-04-07T19:50:14.928Z,16.67
2019-04-07T19:53:04.972Z,16.43
2019-04-07T19:55:44.442Z,16.40
2019-04-07T19:58:20.448Z,15.63
2019-04-07T20:00:54.331Z,14.57
2019-04-07T20:03:31.897Z,17.73
2019-04-07T20:06:23.061Z,13.23
2019-04-07T20:09:11.189Z,15.97
2019-04-07T20:11:55.977Z,13.57
2019-04-07T20:14:31.823Z,13.27
2019-04-07T20:17:04.564Z,14.20
2019-04-07T20:19:53.575Z,14.50
2019-04-07T20:22:27.185Z,13.90
2019-04-07T20:25:17.112Z,13.90
2019-04-07T20:28:00.660Z,12.97
2019-04-07T20:30:49.537Z,14.90
2019-04-07T20:33:33.070Z,12.77
2019-04-07T20:36:23.872Z,13.67
2019-04-07T20:39:01.782Z,13.60
2019-04-07T20:41:48.354Z,15.90
2019-04-07T20:44:35.649Z,16.03
2019-04-07T20:47:22.974Z,12.20
2019-04-07T20:49:56.746Z,14.93
2019-04-07T20:52:38.697Z,16.00
2019-04-07T20:55:17.553Z,14.93
2019-04-07T20:57:53.914Z,13.57
2019-04-07T21:00:38.265Z,15.47
2019-04-07T21:03:26.789Z,15.43
2019-04-07T21:06:03.295Z,15.63
2019-04-07T21:08:36.258Z,16.20
2019-04-07T21:11:15.320Z,14.43
2019-04-07T21:13:48.293Z,13.03
2019-04-07T21:16:34.407Z,16.63
2019-04-07T21:19:07.749Z,15.50
2019-04-07T21:21:41.650Z,14.73
2019-04-07T21:24:19.026Z,14.40
2019-04-07T21:26:49.114Z,16.20
2019-04-07T21:29:19.344Z,14.67
2019-04-07T21:31:49.595Z,14.83
2019-04-07T21:34:19.642Z,16.37
2019-04-07T21:37:04.709Z,16.67
2019-04-07T21:39:43.812Z,17.40
2019-04-07T21:42:19.321Z,18.03
2019-04-07T21:44:48.773Z,15.73
2019-04-07T21:47:34.122Z,17.07
2019-04-07T21:50:07.484Z,16.20
2019-04-07T21:52:35.866Z,18.07
2019-04-07T21:55:09.877Z,17.33
2019-04-07T21:57:53.606Z,16.43
2019-04-07T22:00:31.628Z,14.57
2019-04-07T22:03:15.827Z,19.67
2019-04-07T22:05:44.156Z,17.70
2019-04-07T22:08:32.677Z,16.33
2019-04-07T22:11:01.536Z,16.50
2019-04-07T22:13:32.860Z,15.57
2019-04-07T22:16:02.925Z,19.67
2019-04-07T22:18:30.076Z,16.60
2019-04-07T22:20:59.177Z,17.23
2019-04-07T22:23:29.967Z,18.53
2019-04-07T22:25:57.920Z,15.97
2019-04-07T22:28:28.508Z,15.63
2019-04-07T22:30:57.264Z,15.50
2019-04-07T22:33:28.674Z,16.97
2019-04-07T22:35:55.823Z,14.93
2019-04-07T22:38:25.244Z,16.50
2019-04-07T22:40:54.334Z,16.03
2019-04-07T22:43:22.939Z,16.77
2019-04-07T22:45:59.295Z,15.93
2019-04-07T22:48:25.276Z,15.20
2019-04-07T22:50:51.823Z,15.70
2019-04-07T22:53:22.553Z,14.63
2019-04-07T22:55:50.590Z,17.57
2019-04-07T22:58:18.972Z,16.73
2019-04-07T23:00:47.617Z,15.17
2019-04-07T23:03:16.023Z,18.23
2019-04-07T23:05:44.442Z,16.30
2019-04-07T23:08:12.856Z,17.57
2019-04-07T23:10:42.158Z,17.80
2019-04-07T23:13:11.225Z,15.93
2019-04-07T23:15:44.325Z,16.47
2019-04-07T23:18:09.722Z,15.37
2019-04-07T23:20:39.680Z,15.53
2019-04-07T23:23:08.860Z,15.80
2019-04-07T23:25:38.316Z,16.00
2019-04-07T23:28:07.022Z,15.47
2019-04-07T23:30:35.486Z,15.83
2019-04-07T23:33:04.208Z,16.60
2019-04-07T23:35:32.991Z,16.53
2019-04-07T23:38:01.600Z,17.67
2019-04-07T23:40:30.165Z,19.00
2019-04-07T23:42:58.682Z,15.97
2019-04-07T23:45:27.392Z,18.83
2019-04-07T23:47:55.907Z,17.40
2019-04-07T23:50:25.156Z,17.07
2019-04-07T23:52:53.888Z,19.60
2019-04-07T23:55:23.961Z,15.50
2019-04-07T23:57:52.436Z,15.80
